Hovedside
METAR-TAF:

METAR-TAF

Lufthavner :

Derby, Australia

breddegrad: 17-34-53S, lengdegrad: 123-49-42E, høyde over havet: 91 m

Gjeldene værobservasjon

Denne rapporten ble laget for 38 minutter siden, klokken 19:00 UTC
Vind 8 kt fra Sørøst
Temperatur 17°C
Luftfuktighet 42%
Trykk 1012 hPa
Sikt 10 km eller mer

METAR: YCIN 241900Z AUTO 14008KT 9999 // NCD 17/04 Q1012 RF00.0/000.0

Tid: 03:38 (19:38 UTC)

Varsel

Denne rapporten ble laget for 7 timer og 36 minutter siden, klokken 12:02 UTC
Varsel gyldig fra 24. klokken 14 UTC til 25. klokken 02 UTC
Vind 10 kt fra Sør-sørøst
Sikt 10 km eller mer
ingen skyer under 1500 m og ingen bygeskyer

TAF: YCIN 241202Z 2414/2502 15010KT CAVOK

Værobservasjoner og værvarsel for over 4000 flyplasser (METAR- og TAF-rapporter).

Tilgjengelige stasjoner er representert av de røde og gule prikkene på kartet.

Hold musepekeren over prikken for å se navnet på stasjonen.

Klikk så for å se værobservasjoner og -varsler.

For å forandre kartet kan du klikke på den grønne knappen med svart kryss for å zoome inn, på den grønne knappen med strek for å zoome ut, eller på de grønne pilene for å se tilstøtende kart.


METAR-TAF: